sensor_id;sensor_type;location;lat;lon;timestamp;pressure;altitude;pressure_sealevel;temperature;humidity
73594;BME280;64760;53.404;23.498;2023-04-07T00:01:25;99581.69;;;7.29;100.00
73594;BME280;64760;53.404;23.498;2023-04-07T00:03:52;99579.38;;;7.26;100.00
73594;BME280;64760;53.404;23.498;2023-04-07T00:06:18;99576.59;;;7.42;100.00
73594;BME280;64760;53.404;23.498;2023-04-07T00:08:44;99582.91;;;7.41;100.00
73594;BME280;64760;53.404;23.498;2023-04-07T00:11:11;99571.69;;;7.31;100.00
73594;BME280;64760;53.404;23.498;2023-04-07T00:13:38;99570.31;;;7.35;100.00
73594;BME280;64760;53.404;23.498;2023-04-07T00:16:04;99578.69;;;7.32;100.00
73594;BME280;64760;53.404;23.498;2023-04-07T00:18:31;99580.31;;;7.33;100.00
73594;BME280;64760;53.404;23.498;2023-04-07T00:20:57;99572.31;;;7.33;100.00
73594;BME280;64760;53.404;23.498;2023-04-07T00:23:23;99570.94;;;7.37;100.00
73594;BME280;64760;53.404;23.498;2023-04-07T00:25:50;99571.72;;;7.45;100.00
73594;BME280;64760;53.404;23.498;2023-04-07T00:28:16;99566.50;;;7.52;100.00
73594;BME280;64760;53.404;23.498;2023-04-07T00:30:43;99567.59;;;7.43;100.00
73594;BME280;64760;53.404;23.498;2023-04-07T00:33:09;99561.72;;;7.25;100.00
73594;BME280;64760;53.404;23.498;2023-04-07T00:35:36;99567.72;;;7.27;100.00
73594;BME280;64760;53.404;23.498;2023-04-07T00:38:02;99561.19;;;7.29;100.00
73594;BME280;64760;53.404;23.498;2023-04-07T00:40:29;99551.91;;;7.25;100.00
73594;BME280;64760;53.404;23.498;2023-04-07T00:42:55;99555.16;;;7.13;100.00
73594;BME280;64760;53.404;23.498;2023-04-07T00:45:22;99550.34;;;7.31;100.00
73594;BME280;64760;53.404;23.498;2023-04-07T00:47:48;99546.84;;;7.16;100.00
73594;BME280;64760;53.404;23.498;2023-04-07T00:50:15;99559.19;;;7.31;100.00
73594;BME280;64760;53.404;23.498;2023-04-07T00:52:41;99556.91;;;7.43;100.00
73594;BME280;64760;53.404;23.498;2023-04-07T00:55:08;99566.00;;;7.34;100.00
73594;BME280;64760;53.404;23.498;2023-04-07T00:57:34;99565.75;;;7.43;100.00
73594;BME280;64760;53.404;23.498;2023-04-07T01:00:01;99554.97;;;7.37;100.00
73594;BME280;64760;53.404;23.498;2023-04-07T01:05:08;99556.00;;;7.36;100.00
73594;BME280;64760;53.404;23.498;2023-04-07T01:07:50;99552.78;;;7.40;100.00
73594;BME280;64760;53.404;23.498;2023-04-07T01:10:26;99557.91;;;7.42;100.00
73594;BME280;64760;53.404;23.498;2023-04-07T01:13:08;99555.69;;;7.31;100.00
73594;BME280;64760;53.404;23.498;2023-04-07T01:15:38;99556.22;;;7.26;100.00
73594;BME280;64760;53.404;23.498;2023-04-07T01:18:11;99548.91;;;7.28;100.00
73594;BME280;64760;53.404;23.498;2023-04-07T01:20:38;99543.66;;;7.35;100.00
73594;BME280;64760;53.404;23.498;2023-04-07T01:23:06;99543.06;;;7.25;100.00
73594;BME280;64760;53.404;23.498;2023-04-07T01:28:33;99552.09;;;7.24;100.00
73594;BME280;64760;53.404;23.498;2023-04-07T01:31:08;99560.03;;;7.32;100.00
73594;BME280;64760;53.404;23.498;2023-04-07T01:33:36;99547.09;;;7.21;100.00
73594;BME280;64760;53.404;23.498;2023-04-07T01:36:05;99552.72;;;6.88;100.00
73594;BME280;64760;53.404;23.498;2023-04-07T01:38:32;99544.63;;;7.19;100.00
73594;BME280;64760;53.404;23.498;2023-04-07T01:40:59;99550.06;;;7.26;100.00
73594;BME280;64760;53.404;23.498;2023-04-07T01:43:26;99543.69;;;7.12;100.00
73594;BME280;64760;53.404;23.498;2023-04-07T01:45:54;99548.00;;;7.13;100.00
73594;BME280;64760;53.404;23.498;2023-04-07T01:48:22;99549.34;;;7.09;100.00
73594;BME280;64760;53.404;23.498;2023-04-07T01:50:49;99553.13;;;7.00;100.00
73594;BME280;64760;53.404;23.498;2023-04-07T01:53:16;99554.59;;;7.02;100.00
73594;BME280;64760;53.404;23.498;2023-04-07T01:55:43;99557.56;;;7.07;100.00
73594;BME280;64760;53.404;23.498;2023-04-07T01:58:10;99551.69;;;7.12;100.00
73594;BME280;64760;53.404;23.498;2023-04-07T02:00:40;99549.50;;;7.16;100.00
73594;BME280;64760;53.404;23.498;2023-04-07T02:03:27;99551.50;;;7.14;100.00
73594;BME280;64760;53.404;23.498;2023-04-07T02:05:59;99540.72;;;7.07;100.00
73594;BME280;64760;53.404;23.498;2023-04-07T02:08:29;99546.84;;;7.16;100.00
73594;BME280;64760;53.404;23.498;2023-04-07T02:10:59;99555.09;;;7.21;100.00
73594;BME280;64760;53.404;23.498;2023-04-07T02:13:31;99547.47;;;7.18;100.00
73594;BME280;64760;53.404;23.498;2023-04-07T02:16:00;99550.84;;;7.12;100.00
73594;BME280;64760;53.404;23.498;2023-04-07T02:18:29;99559.50;;;7.14;100.00
73594;BME280;64760;53.404;23.498;2023-04-07T02:20:58;99553.47;;;7.20;100.00
73594;BME280;64760;53.404;23.498;2023-04-07T02:23:26;99550.59;;;7.21;99.61
73594;BME280;64760;53.404;23.498;2023-04-07T02:25:55;99553.72;;;7.25;99.54
73594;BME280;64760;53.404;23.498;2023-04-07T02:28:22;99547.69;;;7.31;99.37
73594;BME280;64760;53.404;23.498;2023-04-07T02:30:48;99554.09;;;7.22;98.74
73594;BME280;64760;53.404;23.498;2023-04-07T02:33:15;99547.75;;;7.23;98.76
73594;BME280;64760;53.404;23.498;2023-04-07T02:35:42;99549.44;;;7.24;98.73
73594;BME280;64760;53.404;23.498;2023-04-07T02:38:08;99555.94;;;7.21;98.81
73594;BME280;64760;53.404;23.498;2023-04-07T02:40:35;99553.00;;;7.16;98.81
73594;BME280;64760;53.404;23.498;2023-04-07T02:43:01;99558.44;;;7.23;98.49
73594;BME280;64760;53.404;23.498;2023-04-07T02:45:28;99546.31;;;7.35;97.99
73594;BME280;64760;53.404;23.498;2023-04-07T02:47:54;99550.75;;;7.42;96.87
73594;BME280;64760;53.404;23.498;2023-04-07T02:50:20;99563.53;;;7.47;96.36
73594;BME280;64760;53.404;23.498;2023-04-07T02:52:46;99555.09;;;7.73;94.85
73594;BME280;64760;53.404;23.498;2023-04-07T02:55:14;99564.16;;;7.86;93.75
73594;BME280;64760;53.404;23.498;2023-04-07T02:57:40;99551.44;;;7.74;93.95
73594;BME280;64760;53.404;23.498;2023-04-07T03:00:19;99554.75;;;7.90;93.13
73594;BME280;64760;53.404;23.498;2023-04-07T03:03:07;99549.50;;;7.97;92.40
73594;BME280;64760;53.404;23.498;2023-04-07T03:05:37;99550.63;;;8.02;91.47
73594;BME280;64760;53.404;23.498;2023-04-07T03:08:04;99554.75;;;8.20;91.06
73594;BME280;64760;53.404;23.498;2023-04-07T03:10:30;99542.31;;;8.12;90.47
73594;BME280;64760;53.404;23.498;2023-04-07T03:12:56;99555.88;;;8.11;90.31
73594;BME280;64760;53.404;23.498;2023-04-07T03:15:23;99552.72;;;8.22;89.53
73594;BME280;64760;53.404;23.498;2023-04-07T03:17:50;99561.56;;;8.22;89.59
73594;BME280;64760;53.404;23.498;2023-04-07T03:20:17;99555.97;;;8.32;88.57
73594;BME280;64760;53.404;23.498;2023-04-07T03:22:44;99559.00;;;8.29;88.97
73594;BME280;64760;53.404;23.498;2023-04-07T03:25:18;99561.50;;;8.30;88.05
73594;BME280;64760;53.404;23.498;2023-04-07T03:27:44;99560.00;;;8.28;88.29
73594;BME280;64760;53.404;23.498;2023-04-07T03:30:13;99564.25;;;8.37;87.68
73594;BME280;64760;53.404;23.498;2023-04-07T03:32:39;99556.41;;;8.21;88.31
73594;BME280;64760;53.404;23.498;2023-04-07T03:35:06;99557.00;;;8.31;87.65
73594;BME280;64760;53.404;23.498;2023-04-07T03:37:32;99562.59;;;8.36;87.57
73594;BME280;64760;53.404;23.498;2023-04-07T03:39:59;99558.16;;;8.43;86.55
73594;BME280;64760;53.404;23.498;2023-04-07T03:42:28;99563.41;;;8.51;86.29
73594;BME280;64760;53.404;23.498;2023-04-07T03:45:00;99568.44;;;8.61;85.48
73594;BME280;64760;53.404;23.498;2023-04-07T03:47:28;99559.03;;;8.65;84.93
73594;BME280;64760;53.404;23.498;2023-04-07T03:49:58;99576.78;;;8.72;84.19
73594;BME280;64760;53.404;23.498;2023-04-07T03:52:25;99564.31;;;8.58;84.66
73594;BME280;64760;53.404;23.498;2023-04-07T03:54:58;99565.28;;;8.72;84.27
73594;BME280;64760;53.404;23.498;2023-04-07T03:57:29;99571.38;;;8.66;84.43
73594;BME280;64760;53.404;23.498;2023-04-07T03:59:55;99575.38;;;8.76;84.08
73594;BME280;64760;53.404;23.498;2023-04-07T04:02:21;99566.25;;;8.85;82.95
73594;BME280;64760;53.404;23.498;2023-04-07T04:04:51;99568.81;;;8.93;82.60
73594;BME280;64760;53.404;23.498;2023-04-07T04:07:20;99570.69;;;8.78;83.52
73594;BME280;64760;53.404;23.498;2023-04-07T04:09:49;99567.53;;;8.89;82.54
73594;BME280;64760;53.404;23.498;2023-04-07T04:12:16;99576.94;;;8.85;82.74
73594;BME280;64760;53.404;23.498;2023-04-07T04:14:51;99565.50;;;8.91;82.12
73594;BME280;64760;53.404;23.498;2023-04-07T04:17:18;99563.41;;;8.87;82.68
73594;BME280;64760;53.404;23.498;2023-04-07T04:19:46;99572.47;;;8.92;82.35
73594;BME280;64760;53.404;23.498;2023-04-07T04:22:24;99569.75;;;8.86;82.17
73594;BME280;64760;53.404;23.498;2023-04-07T04:24:54;99572.47;;;8.92;82.14
73594;BME280;64760;53.404;23.498;2023-04-07T04:27:22;99578.09;;;8.98;81.60
73594;BME280;64760;53.404;23.498;2023-04-07T04:29:53;99579.94;;;8.97;81.65
73594;BME280;64760;53.404;23.498;2023-04-07T04:32:28;99580.38;;;9.01;81.76
73594;BME280;64760;53.404;23.498;2023-04-07T04:34:55;99576.06;;;9.00;81.23
73594;BME280;64760;53.404;23.498;2023-04-07T04:37:22;99575.88;;;9.22;80.61
73594;BME280;64760;53.404;23.498;2023-04-07T04:39:49;99582.09;;;9.08;80.98
73594;BME280;64760;53.404;23.498;2023-04-07T04:42:19;99592.84;;;8.93;81.88
73594;BME280;64760;53.404;23.498;2023-04-07T04:44:46;99586.00;;;9.06;80.95
73594;BME280;64760;53.404;23.498;2023-04-07T04:47:14;99585.56;;;9.23;80.64
73594;BME280;64760;53.404;23.498;2023-04-07T04:49:40;99589.25;;;9.22;80.11
73594;BME280;64760;53.404;23.498;2023-04-07T04:52:07;99583.19;;;9.14;80.82
73594;BME280;64760;53.404;23.498;2023-04-07T04:54:39;99587.69;;;8.92;81.52
73594;BME280;64760;53.404;23.498;2023-04-07T04:57:09;99591.78;;;9.09;81.05
73594;BME280;64760;53.404;23.498;2023-04-07T04:59:37;99592.44;;;9.11;80.94
73594;BME280;64760;53.404;23.498;2023-04-07T05:02:04;99594.78;;;9.21;79.77
73594;BME280;64760;53.404;23.498;2023-04-07T05:04:31;99588.81;;;9.19;79.59
73594;BME280;64760;53.404;23.498;2023-04-07T05:07:06;99585.88;;;9.14;79.92
73594;BME280;64760;53.404;23.498;2023-04-07T05:09:32;99597.31;;;9.29;79.49
73594;BME280;64760;53.404;23.498;2023-04-07T05:11:58;99595.44;;;9.23;79.42
73594;BME280;64760;53.404;23.498;2023-04-07T05:14:28;99604.81;;;9.40;79.31
73594;BME280;64760;53.404;23.498;2023-04-07T05:17:02;99597.66;;;9.19;79.03
73594;BME280;64760;53.404;23.498;2023-04-07T05:19:29;99602.66;;;9.29;78.98
73594;BME280;64760;53.404;23.498;2023-04-07T05:22:00;99588.69;;;9.27;78.45
73594;BME280;64760;53.404;23.498;2023-04-07T05:24:28;99596.44;;;9.43;78.44
73594;BME280;64760;53.404;23.498;2023-04-07T05:26:57;99611.66;;;9.42;78.08
73594;BME280;64760;53.404;23.498;2023-04-07T05:29:24;99612.34;;;9.30;78.82
73594;BME280;64760;53.404;23.498;2023-04-07T05:31:51;99613.81;;;9.32;79.21
73594;BME280;64760;53.404;23.498;2023-04-07T05:34:19;99619.16;;;9.32;78.91
73594;BME280;64760;53.404;23.498;2023-04-07T05:36:50;99613.91;;;9.39;78.39
73594;BME280;64760;53.404;23.498;2023-04-07T05:39:17;99617.19;;;9.41;78.54
73594;BME280;64760;53.404;23.498;2023-04-07T05:41:44;99613.69;;;9.40;78.31
73594;BME280;64760;53.404;23.498;2023-04-07T05:44:12;99612.53;;;9.50;77.14
73594;BME280;64760;53.404;23.498;2023-04-07T05:46:40;99617.19;;;9.41;77.72
73594;BME280;64760;53.404;23.498;2023-04-07T05:49:07;99610.69;;;9.50;77.66
73594;BME280;64760;53.404;23.498;2023-04-07T05:51:33;99618.16;;;9.55;77.39
73594;BME280;64760;53.404;23.498;2023-04-07T05:54:04;99620.00;;;9.54;77.14
73594;BME280;64760;53.404;23.498;2023-04-07T05:56:30;99627.53;;;9.72;76.96
73594;BME280;64760;53.404;23.498;2023-04-07T05:58:57;99622.16;;;9.65;77.04
73594;BME280;64760;53.404;23.498;2023-04-07T06:01:25;99624.03;;;9.71;76.78
73594;BME280;64760;53.404;23.498;2023-04-07T06:03:52;99624.22;;;9.91;75.93
73594;BME280;64760;53.404;23.498;2023-04-07T06:06:20;99622.19;;;9.72;75.69
73594;BME280;64760;53.404;23.498;2023-04-07T06:08:47;99627.13;;;9.96;75.66
73594;BME280;64760;53.404;23.498;2023-04-07T06:11:13;99635.56;;;10.00;75.87
73594;BME280;64760;53.404;23.498;2023-04-07T06:13:40;99621.34;;;10.20;74.43
73594;BME280;64760;53.404;23.498;2023-04-07T06:16:06;99618.09;;;10.31;74.05
73594;BME280;64760;53.404;23.498;2023-04-07T06:18:32;99637.09;;;10.36;73.64
73594;BME280;64760;53.404;23.498;2023-04-07T06:20:58;99631.75;;;10.43;72.66
73594;BME280;64760;53.404;23.498;2023-04-07T06:23:25;99633.75;;;10.28;74.33
73594;BME280;64760;53.404;23.498;2023-04-07T06:25:51;99625.13;;;10.39;73.72
73594;BME280;64760;53.404;23.498;2023-04-07T06:28:18;99628.75;;;10.59;72.41
73594;BME280;64760;53.404;23.498;2023-04-07T06:30:44;99628.22;;;10.70;72.69
73594;BME280;64760;53.404;23.498;2023-04-07T06:33:12;99630.66;;;10.65;71.97
73594;BME280;64760;53.404;23.498;2023-04-07T06:35:39;99623.00;;;10.62;71.85
73594;BME280;64760;53.404;23.498;2023-04-07T06:38:06;99623.28;;;10.80;71.56
73594;BME280;64760;53.404;23.498;2023-04-07T06:40:33;99634.59;;;10.76;72.73
73594;BME280;64760;53.404;23.498;2023-04-07T06:42:59;99634.44;;;10.84;72.22
73594;BME280;64760;53.404;23.498;2023-04-07T06:45:48;99624.13;;;10.88;70.95
73594;BME280;64760;53.404;23.498;2023-04-07T06:48:15;99633.81;;;10.82;71.83
73594;BME280;64760;53.404;23.498;2023-04-07T06:50:45;99627.28;;;10.98;70.26
73594;BME280;64760;53.404;23.498;2023-04-07T06:53:11;99631.97;;;10.89;70.95
73594;BME280;64760;53.404;23.498;2023-04-07T06:55:37;99621.72;;;11.06;69.65
73594;BME280;64760;53.404;23.498;2023-04-07T06:58:04;99627.97;;;11.39;69.38
73594;BME280;64760;53.404;23.498;2023-04-07T07:00:30;99631.25;;;11.28;69.95
73594;BME280;64760;53.404;23.498;2023-04-07T07:02:56;99632.94;;;11.49;69.21
73594;BME280;64760;53.404;23.498;2023-04-07T07:05:22;99634.81;;;11.48;69.00
73594;BME280;64760;53.404;23.498;2023-04-07T07:07:49;99644.69;;;11.28;69.41
73594;BME280;64760;53.404;23.498;2023-04-07T07:10:16;99629.38;;;11.09;70.93
73594;BME280;64760;53.404;23.498;2023-04-07T07:12:42;99623.63;;;11.18;70.88
73594;BME280;64760;53.404;23.498;2023-04-07T07:15:09;99641.34;;;11.13;71.72
73594;BME280;64760;53.404;23.498;2023-04-07T07:17:35;99631.44;;;11.13;70.48
73594;BME280;64760;53.404;23.498;2023-04-07T07:20:01;99638.88;;;11.18;71.90
73594;BME280;64760;53.404;23.498;2023-04-07T07:22:28;99641.19;;;11.34;71.51
73594;BME280;64760;53.404;23.498;2023-04-07T07:24:54;99634.84;;;11.74;69.59
73594;BME280;64760;53.404;23.498;2023-04-07T07:27:20;99638.59;;;11.73;70.65
73594;BME280;64760;53.404;23.498;2023-04-07T07:29:46;99630.47;;;11.60;69.93
73594;BME280;64760;53.404;23.498;2023-04-07T07:32:12;99632.16;;;11.88;69.81
73594;BME280;64760;53.404;23.498;2023-04-07T07:34:38;99640.66;;;11.98;68.78
73594;BME280;64760;53.404;23.498;2023-04-07T07:37:05;99639.78;;;12.04;68.23
73594;BME280;64760;53.404;23.498;2023-04-07T07:39:31;99636.50;;;12.08;69.25
73594;BME280;64760;53.404;23.498;2023-04-07T07:41:57;99639.75;;;12.30;67.83
73594;BME280;64760;53.404;23.498;2023-04-07T07:44:23;99639.59;;;11.92;69.69
73594;BME280;64760;53.404;23.498;2023-04-07T07:46:50;99644.16;;;12.05;70.42
73594;BME280;64760;53.404;23.498;2023-04-07T07:49:16;99642.06;;;12.07;70.24
73594;BME280;64760;53.404;23.498;2023-04-07T07:51:42;99635.81;;;12.39;68.59
73594;BME280;64760;53.404;23.498;2023-04-07T07:54:11;99640.91;;;12.67;68.19
73594;BME280;64760;53.404;23.498;2023-04-07T07:56:37;99651.28;;;12.50;68.94
73594;BME280;64760;53.404;23.498;2023-04-07T07:59:04;99649.66;;;12.49;69.80
73594;BME280;64760;53.404;23.498;2023-04-07T08:01:33;99645.63;;;12.71;68.88
73594;BME280;64760;53.404;23.498;2023-04-07T08:04:00;99648.44;;;12.96;68.68
73594;BME280;64760;53.404;23.498;2023-04-07T08:06:27;99652.41;;;12.94;69.24
73594;BME280;64760;53.404;23.498;2023-04-07T08:08:54;99649.91;;;12.92;68.73
73594;BME280;64760;53.404;23.498;2023-04-07T08:11:20;99658.31;;;13.15;67.54
73594;BME280;64760;53.404;23.498;2023-04-07T08:13:46;99650.13;;;12.91;69.79
73594;BME280;64760;53.404;23.498;2023-04-07T08:16:13;99658.91;;;13.24;68.25
73594;BME280;64760;53.404;23.498;2023-04-07T08:18:39;99665.25;;;13.36;66.47
73594;BME280;64760;53.404;23.498;2023-04-07T08:21:06;99659.41;;;13.39;65.92
73594;BME280;64760;53.404;23.498;2023-04-07T08:23:32;99653.00;;;13.40;65.98
73594;BME280;64760;53.404;23.498;2023-04-07T08:25:58;99661.84;;;13.03;67.73
73594;BME280;64760;53.404;23.498;2023-04-07T08:28:25;99670.63;;;12.85;68.82
73594;BME280;64760;53.404;23.498;2023-04-07T08:30:52;99659.28;;;12.70;69.47
73594;BME280;64760;53.404;23.498;2023-04-07T08:33:19;99665.56;;;13.02;69.38
73594;BME280;64760;53.404;23.498;2023-04-07T08:35:48;99667.03;;;13.11;68.73
73594;BME280;64760;53.404;23.498;2023-04-07T08:38:15;99666.28;;;13.35;67.95
73594;BME280;64760;53.404;23.498;2023-04-07T08:40:41;99661.91;;;13.41;67.11
73594;BME280;64760;53.404;23.498;2023-04-07T08:43:08;99654.66;;;13.73;66.90
73594;BME280;64760;53.404;23.498;2023-04-07T08:45:38;99659.84;;;13.68;65.11
73594;BME280;64760;53.404;23.498;2023-04-07T08:48:15;99660.44;;;13.70;65.40
73594;BME280;64760;53.404;23.498;2023-04-07T08:50:44;99657.91;;;13.81;66.13
73594;BME280;64760;53.404;23.498;2023-04-07T08:53:12;99662.50;;;13.74;66.02
73594;BME280;64760;53.404;23.498;2023-04-07T08:55:42;99662.72;;;13.73;65.16
73594;BME280;64760;53.404;23.498;2023-04-07T08:58:09;99669.69;;;13.55;66.63
73594;BME280;64760;53.404;23.498;2023-04-07T09:00:39;99665.84;;;13.70;66.29
73594;BME280;64760;53.404;23.498;2023-04-07T09:03:07;99669.66;;;14.11;64.42
73594;BME280;64760;53.404;23.498;2023-04-07T09:05:34;99675.44;;;14.15;65.25
73594;BME280;64760;53.404;23.498;2023-04-07T09:08:01;99664.00;;;13.95;65.20
73594;BME280;64760;53.404;23.498;2023-04-07T09:13:53;99666.16;;;13.55;67.59
73594;BME280;64760;53.404;23.498;2023-04-07T09:16:20;99663.81;;;13.65;67.11
73594;BME280;64760;53.404;23.498;2023-04-07T09:18:46;99674.81;;;13.63;67.58
73594;BME280;64760;53.404;23.498;2023-04-07T09:21:13;99672.09;;;13.63;67.94
73594;BME280;64760;53.404;23.498;2023-04-07T09:23:40;99668.84;;;14.11;65.70
73594;BME280;64760;53.404;23.498;2023-04-07T09:28:47;99668.63;;;13.88;66.04
73594;BME280;64760;53.404;23.498;2023-04-07T09:31:13;99671.81;;;14.03;65.58
73594;BME280;64760;53.404;23.498;2023-04-07T09:33:40;99673.13;;;13.94;66.11
73594;BME280;64760;53.404;23.498;2023-04-07T09:36:06;99677.56;;;14.06;64.54
73594;BME280;64760;53.404;23.498;2023-04-07T09:38:40;99679.84;;;13.85;65.90
73594;BME280;64760;53.404;23.498;2023-04-07T09:41:15;99671.53;;;14.11;66.09
73594;BME280;64760;53.404;23.498;2023-04-07T09:43:43;99676.19;;;14.22;65.12
73594;BME280;64760;53.404;23.498;2023-04-07T09:48:38;99689.38;;;14.30;64.79
73594;BME280;64760;53.404;23.498;2023-04-07T09:51:15;99688.50;;;13.87;66.26
73594;BME280;64760;53.404;23.498;2023-04-07T09:53:47;99692.13;;;13.74;66.92
73594;BME280;64760;53.404;23.498;2023-04-07T09:56:18;99692.59;;;13.96;65.78
73594;BME280;64760;53.404;23.498;2023-04-07T09:58:45;99687.81;;;13.98;66.12
73594;BME280;64760;53.404;23.498;2023-04-07T10:01:14;99694.22;;;14.22;65.32
73594;BME280;64760;53.404;23.498;2023-04-07T10:03:42;99693.03;;;14.42;64.16
73594;BME280;64760;53.404;23.498;2023-04-07T10:06:09;99689.63;;;14.29;65.30
73594;BME280;64760;53.404;23.498;2023-04-07T10:08:37;99697.75;;;14.22;65.09
73594;BME280;64760;53.404;23.498;2023-04-07T10:11:05;99694.50;;;14.13;65.36
73594;BME280;64760;53.404;23.498;2023-04-07T10:13:33;99702.16;;;14.41;63.64
73594;BME280;64760;53.404;23.498;2023-04-07T10:16:03;99700.78;;;14.57;63.52
73594;BME280;64760;53.404;23.498;2023-04-07T10:18:31;99707.56;;;14.41;64.18
73594;BME280;64760;53.404;23.498;2023-04-07T10:21:06;99697.19;;;14.45;63.93
73594;BME280;64760;53.404;23.498;2023-04-07T10:23:42;99697.56;;;14.48;65.05
73594;BME280;64760;53.404;23.498;2023-04-07T10:26:18;99708.19;;;14.62;63.77
73594;BME280;64760;53.404;23.498;2023-04-07T10:28:50;99693.66;;;14.63;63.08
73594;BME280;64760;53.404;23.498;2023-04-07T10:31:19;99704.06;;;15.14;62.08
73594;BME280;64760;53.404;23.498;2023-04-07T10:33:50;99693.63;;;15.35;60.86
73594;BME280;64760;53.404;23.498;2023-04-07T10:36:18;99685.28;;;15.37;60.85
73594;BME280;64760;53.404;23.498;2023-04-07T10:41:34;99690.63;;;15.43;61.57
73594;BME280;64760;53.404;23.498;2023-04-07T10:47:08;99693.69;;;15.47;60.13
73594;BME280;64760;53.404;23.498;2023-04-07T10:49:35;99700.13;;;15.46;61.40
73594;BME280;64760;53.404;23.498;2023-04-07T10:54:37;99703.72;;;15.88;58.77
73594;BME280;64760;53.404;23.498;2023-04-07T10:57:04;99707.88;;;15.42;60.88
73594;BME280;64760;53.404;23.498;2023-04-07T10:59:33;99696.13;;;15.19;61.31
73594;BME280;64760;53.404;23.498;2023-04-07T11:04:40;99702.81;;;15.16;61.26
73594;BME280;64760;53.404;23.498;2023-04-07T11:07:08;99706.25;;;15.23;61.98
73594;BME280;64760;53.404;23.498;2023-04-07T11:09:34;99711.75;;;15.17;61.85
73594;BME280;64760;53.404;23.498;2023-04-07T11:12:01;99710.00;;;15.22;61.59
73594;BME280;64760;53.404;23.498;2023-04-07T11:14:28;99703.19;;;15.20;61.83
73594;BME280;64760;53.404;23.498;2023-04-07T11:16:55;99705.31;;;14.99;63.24
73594;BME280;64760;53.404;23.498;2023-04-07T11:19:21;99716.75;;;15.13;62.76
73594;BME280;64760;53.404;23.498;2023-04-07T11:21:48;99713.38;;;14.63;64.25
73594;BME280;64760;53.404;23.498;2023-04-07T11:24:34;99719.19;;;14.42;65.62
73594;BME280;64760;53.404;23.498;2023-04-07T11:27:03;99718.69;;;14.51;65.37
73594;BME280;64760;53.404;23.498;2023-04-07T11:29:30;99720.84;;;14.43;65.91
73594;BME280;64760;53.404;23.498;2023-04-07T11:32:00;99724.50;;;14.24;66.59
73594;BME280;64760;53.404;23.498;2023-04-07T11:34:34;99720.91;;;14.30;66.62
73594;BME280;64760;53.404;23.498;2023-04-07T11:37:21;99728.19;;;14.29;66.46
73594;BME280;64760;53.404;23.498;2023-04-07T11:39:54;99729.44;;;14.27;67.44
73594;BME280;64760;53.404;23.498;2023-04-07T11:42:34;99724.13;;;14.20;66.75
73594;BME280;64760;53.404;23.498;2023-04-07T11:45:00;99728.13;;;14.11;67.66
73594;BME280;64760;53.404;23.498;2023-04-07T11:47:37;99726.81;;;14.20;66.87
73594;BME280;64760;53.404;23.498;2023-04-07T11:50:03;99728.66;;;14.51;65.61
73594;BME280;64760;53.404;23.498;2023-04-07T11:52:43;99719.91;;;14.74;64.07
73594;BME280;64760;53.404;23.498;2023-04-07T11:55:20;99728.56;;;15.00;63.27
73594;BME280;64760;53.404;23.498;2023-04-07T11:57:47;99722.72;;;15.33;62.36
73594;BME280;64760;53.404;23.498;2023-04-07T12:00:13;99715.34;;;15.11;60.87
73594;BME280;64760;53.404;23.498;2023-04-07T12:02:41;99716.63;;;15.08;62.55
73594;BME280;64760;53.404;23.498;2023-04-07T12:05:07;99720.28;;;15.14;61.48
73594;BME280;64760;53.404;23.498;2023-04-07T12:07:39;99716.59;;;15.26;61.07
73594;BME280;64760;53.404;23.498;2023-04-07T12:12:46;99726.44;;;14.84;63.13
73594;BME280;64760;53.404;23.498;2023-04-07T12:15:12;99722.59;;;14.74;63.18
73594;BME280;64760;53.404;23.498;2023-04-07T12:17:44;99723.13;;;14.64;63.68
73594;BME280;64760;53.404;23.498;2023-04-07T12:20:13;99724.63;;;14.60;64.76
73594;BME280;64760;53.404;23.498;2023-04-07T12:22:40;99730.13;;;14.47;65.90
73594;BME280;64760;53.404;23.498;2023-04-07T12:25:07;99722.19;;;14.27;66.86
73594;BME280;64760;53.404;23.498;2023-04-07T12:27:33;99727.41;;;14.22;67.00
73594;BME280;64760;53.404;23.498;2023-04-07T12:29:59;99727.44;;;13.91;68.02
73594;BME280;64760;53.404;23.498;2023-04-07T12:32:26;99720.13;;;13.98;67.87
73594;BME280;64760;53.404;23.498;2023-04-07T12:34:53;99725.38;;;13.93;69.09
73594;BME280;64760;53.404;23.498;2023-04-07T12:37:20;99727.53;;;13.78;69.64
73594;BME280;64760;53.404;23.498;2023-04-07T12:39:46;99723.38;;;13.82;68.15
73594;BME280;64760;53.404;23.498;2023-04-07T12:42:12;99735.66;;;13.71;68.36
73594;BME280;64760;53.404;23.498;2023-04-07T12:44:39;99730.84;;;13.80;67.38
73594;BME280;64760;53.404;23.498;2023-04-07T12:47:06;99732.50;;;13.49;68.21
73594;BME280;64760;53.404;23.498;2023-04-07T12:49:32;99734.81;;;13.39;69.02
73594;BME280;64760;53.404;23.498;2023-04-07T12:51:59;99749.31;;;13.38;70.05
73594;BME280;64760;53.404;23.498;2023-04-07T12:54:25;99748.16;;;13.21;74.19
73594;BME280;64760;53.404;23.498;2023-04-07T12:56:52;99746.75;;;12.92;76.52
73594;BME280;64760;53.404;23.498;2023-04-07T12:59:18;99760.25;;;12.73;78.79
73594;BME280;64760;53.404;23.498;2023-04-07T13:01:44;99756.13;;;12.77;80.08
73594;BME280;64760;53.404;23.498;2023-04-07T13:04:11;99755.09;;;12.51;81.89
73594;BME280;64760;53.404;23.498;2023-04-07T13:06:37;99762.75;;;12.54;81.80
73594;BME280;64760;53.404;23.498;2023-04-07T13:09:04;99759.47;;;12.46;82.96
73594;BME280;64760;53.404;23.498;2023-04-07T13:11:30;99769.19;;;12.27;84.53
73594;BME280;64760;53.404;23.498;2023-04-07T13:13:57;99761.31;;;12.19;84.75
73594;BME280;64760;53.404;23.498;2023-04-07T13:16:23;99779.09;;;12.07;85.43
73594;BME280;64760;53.404;23.498;2023-04-07T13:18:50;99768.97;;;12.09;85.85
73594;BME280;64760;53.404;23.498;2023-04-07T13:21:17;99772.06;;;12.19;85.38
73594;BME280;64760;53.404;23.498;2023-04-07T13:23:43;99776.59;;;11.99;86.18
73594;BME280;64760;53.404;23.498;2023-04-07T13:26:10;99782.19;;;12.04;86.43